• Join FlightAware (Why Join?)
  • Login
  • US Flag 
02:29PM EDT


 

Airport Tracker/Info


-or-


 

Live Flight TrackerFlight Track Log ✈ SWA279 ✈ 26-Apr-2013 ✈ KRNO - KPDX

Flight Track Log - Related Links

Times and Time Zones

All times are in EDT time to prevent confusion due to time zone crossing. See the SWA279 flight status page for this flight to view local times or setup timezone preferences in your user account.

Time Position Orientation Groundspeed Altitude Reporting Facility
EDT Latitude Longitude Course Direction KTS MPH feet Rate Location/Type
09:36PM 39.4753 -119.7669 331° Northwest 171 197 38,000  Level Oakland Center
09:37PM 39.4333 -119.7667 180° South 224 258 7,200 -16,380 Descending Northern Cal TRACON
09:38PM 39.3833 -119.7167 142° Southeast 253 291 10,500 3,120 Climbing Northern Cal TRACON
09:39PM 39.4333 -119.7167 360° North 229 264 13,500 2,340 Climbing Northern Cal TRACON
09:41PM 39.5867 -119.7944 339° North 326 375 17,000 1,980 Climbing Seattle Center
09:41PM 39.6472 -119.8328 334° Northwest 361 415 18,300 2,460 Climbing Oakland Center
09:42PM 39.9537 -119.9860 331° Northwest  Level FlightAware Approximate
09:42PM 39.7522 -119.8950 336° Northwest 403 464 21,200  Level Oakland Center
09:43PM 39.8572 -119.9594 335° Northwest 412 474 23,800 2,220 Climbing Oakland Center
09:44PM 39.9658 -120.0250 335° Northwest 425 489 25,800 2,400 Climbing Oakland Center
09:45PM 40.0772 -120.0931 335° Northwest 440 506 28,700 2,520 Climbing Oakland Center
09:46PM 40.1850 -120.1600 335° Northwest 430 495 31,000 2,400 Climbing Oakland Center
09:47PM 40.3144 -120.2375 335° Northwest 426 490 33,700 1,440 Climbing Oakland Center
09:48PM 40.4206 -120.3019 335° Northwest 422 486 34,000 540 Climbing Oakland Center
09:49PM 40.5272 -120.3681 335° Northwest 422 486 34,900 900 Climbing Oakland Center
09:50PM 40.5489 -120.3794 338° Northwest 425 489 35,200 1,500 Climbing Seattle Center
09:51PM 40.6328 -120.4311 335° Northwest 425 489 36,500 1,500 Climbing Oakland Center
09:52PM 40.7378 -120.4967 335° Northwest 422 486 37,900 720 Climbing Oakland Center
09:53PM 40.8425 -120.5639 334° Northwest 419 482 38,000  Climbing Oakland Center
09:54PM 40.9481 -120.6283 335° Northwest 417 480 38,000  Level Oakland Center
09:54PM 40.9692 -120.6425 333° Northwest 418 481 38,000  Level Seattle Center
09:55PM 41.0964 -120.7222 335° Northwest 420 483 38,000  Level Seattle Center
09:56PM 41.1997 -120.7886 334° Northwest 416 479 38,000  Level Seattle Center
09:57PM 41.3064 -120.8553 335° Northwest 421 484 38,000  Level Seattle Center
09:58PM 41.4114 -120.9225 334° Northwest 420 483 38,000  Level Seattle Center
09:59PM 41.5153 -120.9894 334° Northwest 417 480 38,000  Level Seattle Center
10:00PM 41.6208 -121.0581 334° Northwest 422 486 38,000  Level Seattle Center
10:01PM 41.7247 -121.1236 335° Northwest 416 479 38,000  Level Seattle Center
10:02PM 41.8278 -121.1911 334° Northwest 414 476 38,000  Level Seattle Center
10:03PM 41.9308 -121.2572 334° Northwest 413 475 38,000  Level Seattle Center
10:04PM 42.0308 -121.3222 334° Northwest 403 464 38,000  Level Seattle Center
10:05PM 42.1456 -121.3939 335° Northwest 402 463 38,000  Level Seattle Center
10:06PM 42.2325 -121.4542 333° Northwest 407 468 38,000  Level Seattle Center
10:07PM 42.3331 -121.5189 335° Northwest 403 464 38,000  Level Seattle Center
10:08PM 42.4533 -121.5981 334° Northwest 402 463 38,100  Climbing Seattle Center
10:09PM 42.5536 -121.6642 334° Northwest 403 464 38,000 -60 Descending Seattle Center
10:10PM 42.6522 -121.7306 334° Northwest 401 461 38,000  Level Seattle Center
10:11PM 42.7519 -121.7967 334° Northwest 400 460 38,000  Level Seattle Center
10:12PM 42.8531 -121.8642 334° Northwest 405 466 38,000 -480 Level Seattle Center
10:13PM 42.9536 -121.9314 334° Northwest 403 464 37,100 -900 Descending Seattle Center
10:14PM 43.0544 -121.9983 334° Northwest 401 461 36,200 -960 Descending Seattle Center
10:15PM 43.1578 -122.0675 334° Northwest 411 473 35,200 -960 Descending Seattle Center
10:16PM 43.2603 -122.1383 333° Northwest 413 475 34,300 -600 Descending Seattle Center
10:17PM 43.3764 -122.2158 334° Northwest 418 481 34,000 -180 Descending Seattle Center
10:18PM 43.4797 -122.2861 334° Northwest 415 478 34,000  Level Seattle Center
10:19PM 43.5828 -122.3553 334° Northwest 415 478 34,000  Level Seattle Center
10:20PM 43.6856 -122.4269 333° Northwest 415 478 34,000  Level Seattle Center
10:21PM 43.7869 -122.4983 333° Northwest 412 474 34,000  Level Seattle Center
10:22PM 43.8900 -122.5683 334° Northwest 414 476 34,000 -300 Level Seattle Center
10:23PM 43.9908 -122.6389 333° Northwest 410 472 33,400 -1,680 Descending Seattle Center
10:24PM 44.0914 -122.7097 333° Northwest 407 468 30,700 -2,520 Descending Seattle Center
10:25PM 44.2011 -122.7481 346° North 423 487 28,300 -2,640 Descending Seattle Center
10:26PM 44.3336 -122.7347 North 415 478 25,400 -2,640 Descending Seattle Center
10:27PM 44.4442 -122.7228 North 404 465 23,000 -2,280 Descending Seattle Center
10:28PM 44.5511 -122.7133 North 390 449 20,800 -2,160 Descending Seattle Center
10:29PM 44.6575 -122.7019 North 386 444 18,700 -2,040 Descending Seattle Center
10:30PM 44.7261 -122.6981 North 369 425 17,500 -1,980 Descending Seattle Center
10:30PM 44.7583 -122.6925 North 375 432 16,700 -2,520 Descending Seattle Center
10:31PM 44.8511 -122.6844 North 366 421 14,500 -2,460 Descending Seattle Center
10:32PM 44.9503 -122.6719 North 358 412 12,200 -1,620 Descending Seattle Center
10:33PM 45.0375 -122.6642 North 344 396 11,500 -780 Descending Seattle Center
10:33PM 45.0522 -122.6633 North 350 403 11,300 -1,200 Descending Seattle Center
10:34PM 45.1250 -122.6564 North 341 392 10,400 -1,020 Descending Seattle Center
10:34PM 45.1461 -122.6536 North 345 397 10,300 -720 Descending Seattle Center
10:35PM 45.2161 -122.6472 North 282 325 9,600 -1,320 Descending Seattle Center
10:35PM 45.2431 -122.6378 14° North 307 353 9,000 -1,500 Descending Seattle Center
10:36PM 45.2825 -122.6108 26° Northeast 276 318 8,300 -1,620 Descending Seattle Center
10:36PM 45.3119 -122.5922 24° Northeast 283 326 7,400 -2,280 Descending Seattle Center
10:37PM 45.3531 -122.5639 26° Northeast 267 307 6,000 -2,100 Descending Seattle Center
10:37PM 45.3797 -122.5469 24° Northeast 273 314 5,300 -1,140 Descending Seattle Center
10:38PM 45.4108 -122.5278 23° Northeast 245 282 5,000 -540 Descending Seattle Center
10:38PM 45.4400 -122.5100 23° Northeast 248 285 4,800 -900 Descending Seattle Center
10:39PM 45.4647 -122.4936 25° Northeast 198 228 4,100 -1,680 Descending Seattle Center
10:39PM 45.4906 -122.4744 27° Northeast 214 246 3,100 -1,620 Descending Seattle Center
10:40PM 45.5217 -122.4547 24° Northeast 185 213 2,300 -1,200 Descending Seattle Center
10:41PM 45.5386 -122.4542 North 190 219 1,900 -900 Descending Seattle Center
10:41PM 45.5514 -122.4828 303° West 139 160 1,400 -900 Descending Seattle Center
10:42PM 45.5575 -122.5000 297° West 157 181 1,000 -720 Descending Seattle Center
10:42PM 45.5672 -122.5286 296° West 128 147 700 -600 Descending Seattle Center
10:43PM 45.5747 -122.5444 304° West 139 160 400 -420 Descending Seattle Center
10:44PM 45.5919 -122.5853 301° West 137 158 100 -300 Descending Seattle Center